Terminal Aerodrome Forecast
Issued by NWS Twin Cities, MN

Home | Current Version | Previous Version | Graphics & Text | Print | Product List | Glossary On
Versions: 1 2 3 4 5 6 7 8 9 10 11 12 13 14
000
FTUS43 KMPX 160200 AAA
TAFEAU
TAF AMD
KEAU 160242Z 1603/1624 03005KT 2SM -RA BR OVC003
     FM160600 36010KT 1SM -RA BR OVC004
     FM160900 35016KT 1 1/2SM -SN BR OVC005
     FM161200 33015G21KT 4SM -SN BR OVC010
     FM161500 33013KT P6SM OVC014=

USA.gov is the U.S. government's official web portal to all federal, state and local government web resources and services.